Time;durP1;ratioP1;P1;durP2;ratioP2;P2;SDS_P1;SDS_P2;PMS_P1;PMS_P2;Temp;Humidity;BMP_temperature;BMP_pressure;BME280_temperature;BME280_humidity;BME280_pressure;Samples;Min_cycle;Max_cycle;Signal;HPM_P1;HPM_P2
2022/06/07 00:02:04;;;;;;;0.50;0.50;;;17.60;99.90;;;;;;5062575;28;20246;-64
2022/06/07 00:04:31;;;;;;;0.50;0.50;;;17.60;99.90;;;;;;5057406;28;20298;-64
2022/06/07 00:06:58;;;;;;;0.70;0.70;;;17.60;99.90;;;;;;5072954;28;20200;-66
2022/06/07 00:09:25;;;;;;;1.77;0.67;;;17.70;99.90;;;;;;5097396;28;20219;-65
2022/06/07 00:11:53;;;;;;;0.60;0.60;;;17.60;99.90;;;;;;5096453;28;20258;-64
2022/06/07 00:14:20;;;;;;;0.63;0.60;;;17.50;99.90;;;;;;5091798;28;20701;-64
2022/06/07 00:16:47;;;;;;;0.70;0.70;;;17.50;99.90;;;;;;5077326;28;20207;-65
2022/06/07 00:19:14;;;;;;;0.70;0.70;;;17.50;99.90;;;;;;5087231;28;20201;-64
2022/06/07 00:21:41;;;;;;;0.60;0.60;;;17.50;99.90;;;;;;5080959;28;20250;-65
2022/06/07 00:24:08;;;;;;;0.47;0.47;;;17.50;99.90;;;;;;5088794;28;20218;-66
2022/06/07 00:26:37;;;;;;;0.50;0.50;;;17.50;99.90;;;;;;5084365;28;20203;-67
2022/06/07 00:29:06;;;;;;;0.70;0.70;;;17.50;99.90;;;;;;5088346;28;20256;-65
2022/06/07 00:31:34;;;;;;;0.50;0.50;;;17.50;99.90;;;;;;5079507;28;20204;-64
2022/06/07 00:34:01;;;;;;;0.77;0.77;;;17.50;99.90;;;;;;5084238;28;20294;-65
2022/06/07 00:36:28;;;;;;;0.70;0.70;;;17.50;99.90;;;;;;5088393;28;20290;-65
2022/06/07 00:38:55;;;;;;;1.03;0.80;;;17.50;99.90;;;;;;5087741;28;20298;-66
2022/06/07 00:41:22;;;;;;;0.80;0.80;;;17.50;99.90;;;;;;5082844;28;20226;-65
2022/06/07 00:44:22;;;;;;;0.70;0.70;;;17.50;99.90;;;;;;5085123;28;20270;-64
2022/06/07 00:46:53;;;;;;;0.80;0.80;;;17.40;99.90;;;;;;5085093;28;20199;-63
2022/06/07 00:49:21;;;;;;;0.50;0.50;;;17.40;99.90;;;;;;5086757;28;20195;-67
2022/06/07 00:51:48;;;;;;;0.60;0.60;;;17.40;99.90;;;;;;5086187;28;20199;-66
2022/06/07 00:54:19;;;;;;;0.60;0.60;;;17.40;99.90;;;;;;5085700;28;20233;-65
2022/06/07 00:56:46;;;;;;;0.60;0.60;;;17.30;99.90;;;;;;5085145;28;20229;-65
2022/06/07 00:59:13;;;;;;;0.60;0.60;;;17.30;99.90;;;;;;5087657;28;20278;-64
2022/06/07 01:01:40;;;;;;;0.70;0.70;;;17.30;99.90;;;;;;5088747;28;20234;-64
2022/06/07 01:04:09;;;;;;;0.60;0.60;;;17.30;99.90;;;;;;5090909;28;20226;-65
2022/06/07 01:12:05;;;;;;;0.70;0.70;;;17.10;99.90;;;;;;5077316;28;20214;-65
2022/06/07 01:14:31;;;;;;;0.70;0.70;;;17.20;99.90;;;;;;5081968;28;20314;-64
2022/06/07 01:17:04;;;;;;;0.60;0.60;;;17.10;99.90;;;;;;5089009;28;20199;-65
2022/06/07 01:19:32;;;;;;;0.70;0.70;;;17.10;99.90;;;;;;5075015;28;20291;-63
2022/06/07 01:22:01;;;;;;;0.67;0.67;;;17.10;99.90;;;;;;5089818;28;20283;-65
2022/06/07 01:24:28;;;;;;;0.70;0.70;;;17.10;99.90;;;;;;5081595;28;20219;-65
2022/06/07 01:26:54;;;;;;;0.53;0.53;;;17.10;99.90;;;;;;5090626;28;20289;-66
2022/06/07 01:29:22;;;;;;;0.50;0.50;;;17.10;99.90;;;;;;5086883;28;20220;-66
2022/06/07 01:31:49;;;;;;;0.50;0.50;;;17.10;99.90;;;;;;5085042;28;20231;-66
2022/06/07 01:34:16;;;;;;;0.60;0.60;;;17.10;99.90;;;;;;5085324;28;20227;-64
2022/06/07 01:36:43;;;;;;;0.50;0.50;;;17.10;99.90;;;;;;5083306;28;20237;-64
2022/06/07 01:41:56;;;;;;;0.83;0.70;;;17.20;99.90;;;;;;5073537;28;20206;-65
2022/06/07 01:44:23;;;;;;;0.70;0.70;;;17.20;99.90;;;;;;5084601;28;20305;-64
2022/06/07 01:46:51;;;;;;;0.50;0.50;;;17.20;99.90;;;;;;5084375;28;20233;-64
2022/06/07 01:49:18;;;;;;;0.60;0.60;;;17.20;99.90;;;;;;5079591;28;20210;-65
2022/06/07 01:51:45;;;;;;;0.50;0.50;;;17.20;99.90;;;;;;5083474;28;20745;-63
2022/06/07 01:54:15;;;;;;;0.53;0.53;;;17.10;99.90;;;;;;5084475;28;20244;-66
2022/06/07 01:56:42;;;;;;;0.87;0.80;;;17.10;99.90;;;;;;5082947;28;20231;-65
2022/06/07 01:59:09;;;;;;;0.60;0.60;;;17.00;99.90;;;;;;5080043;28;20241;-64
2022/06/07 02:01:37;;;;;;;0.70;0.70;;;17.00;99.90;;;;;;5082748;28;20579;-65
2022/06/07 02:04:04;;;;;;;0.60;0.60;;;16.90;99.90;;;;;;5086226;28;20210;-66
2022/06/07 02:06:31;;;;;;;0.40;0.40;;;16.90;99.90;;;;;;5088819;28;20264;-65
2022/06/07 02:08:58;;;;;;;0.50;0.50;;;16.90;99.90;;;;;;5092334;28;20632;-67
2022/06/07 02:11:28;;;;;;;0.40;0.40;;;16.90;99.90;;;;;;5092415;28;20302;-66
2022/06/07 02:13:55;;;;;;;0.60;0.60;;;16.90;99.90;;;;;;5082393;28;20223;-64
2022/06/07 02:16:23;;;;;;;0.57;0.57;;;17.00;99.90;;;;;;5084502;28;20739;-66
2022/06/07 02:18:50;;;;;;;0.60;0.60;;;17.00;99.90;;;;;;5083603;28;20207;-65
2022/06/07 02:21:19;;;;;;;0.57;0.57;;;16.90;99.90;;;;;;5084475;28;20289;-64
2022/06/07 02:23:46;;;;;;;0.80;0.80;;;16.80;99.90;;;;;;5083212;28;20249;-65
2022/06/07 02:26:17;;;;;;;0.50;0.50;;;16.80;99.90;;;;;;5084486;28;20632;-66
2022/06/07 02:28:49;;;;;;;0.60;0.60;;;16.70;99.90;;;;;;5082532;28;20214;-66
2022/06/07 02:31:17;;;;;;;0.57;0.57;;;16.80;99.90;;;;;;5085643;28;20202;-64
2022/06/07 02:33:44;;;;;;;0.60;0.60;;;16.70;99.90;;;;;;5081684;28;20230;-65
2022/06/07 02:36:13;;;;;;;0.70;0.70;;;16.70;99.90;;;;;;5080604;28;20231;-66
2022/06/07 02:38:41;;;;;;;0.50;0.50;;;16.70;99.90;;;;;;5082160;28;20249;-66
2022/06/07 02:41:11;;;;;;;0.50;0.50;;;16.60;99.90;;;;;;5084281;28;20807;-66
2022/06/07 02:43:38;;;;;;;0.50;0.50;;;16.70;99.90;;;;;;5080904;28;20699;-64
2022/06/07 02:46:06;;;;;;;0.70;0.70;;;16.60;99.90;;;;;;5086428;28;20308;-65
2022/06/07 02:48:33;;;;;;;0.60;0.60;;;16.60;99.90;;;;;;5081277;28;20204;-66
2022/06/07 02:51:00;;;;;;;0.40;0.40;;;16.70;99.90;;;;;;5088088;28;20199;-66
2022/06/07 02:53:27;;;;;;;0.60;0.60;;;16.60;99.90;;;;;;5080426;28;20250;-66
2022/06/07 02:55:54;;;;;;;0.50;0.50;;;16.70;99.90;;;;;;5082907;28;20222;-67
2022/06/07 02:58:21;;;;;;;0.70;0.70;;;16.70;99.90;;;;;;5083255;28;20560;-64
2022/06/07 03:00:47;;;;;;;0.53;0.53;;;16.70;99.90;;;;;;5082506;28;20237;-65
2022/06/07 03:03:16;;;;;;;0.60;0.60;;;16.70;99.90;;;;;;5084380;28;20235;-66
2022/06/07 03:05:42;;;;;;;0.52;0.52;;;16.80;99.90;;;;;;5081018;28;20199;-64
2022/06/07 03:08:10;;;;;;;0.67;0.67;;;16.80;99.90;;;;;;5086431;28;20199;-63
2022/06/07 03:10:37;;;;;;;0.70;0.70;;;16.80;99.90;;;;;;5080988;28;20203;-63
2022/06/07 03:13:04;;;;;;;0.70;0.70;;;16.80;99.90;;;;;;5090377;28;20242;-64
2022/06/07 03:15:30;;;;;;;0.60;0.60;;;16.80;99.90;;;;;;5084251;28;20584;-66
2022/06/07 03:17:57;;;;;;;0.80;0.80;;;16.80;99.90;;;;;;5088576;28;20220;-65
2022/06/07 03:20:26;;;;;;;0.70;0.70;;;16.80;99.90;;;;;;5077790;28;20205;-66
2022/06/07 03:22:53;;;;;;;0.70;0.70;;;16.70;99.90;;;;;;5078981;28;20330;-64
2022/06/07 03:25:20;;;;;;;0.83;0.83;;;16.80;99.90;;;;;;5079557;28;20203;-66
2022/06/07 03:27:47;;;;;;;0.57;0.57;;;16.80;99.90;;;;;;5079400;28;20199;-65
2022/06/07 03:30:14;;;;;;;0.77;0.70;;;16.80;99.90;;;;;;5073254;28;20199;-64
2022/06/07 03:35:10;;;;;;;0.60;0.60;;;16.70;99.90;;;;;;5099802;22;20272;-63
2022/06/07 03:37:38;;;;;;;0.53;0.50;;;16.60;99.90;;;;;;5078683;28;20235;-62
2022/06/07 03:40:07;;;;;;;0.50;0.50;;;16.60;99.90;;;;;;5088699;28;20260;-61
2022/06/07 03:42:34;;;;;;;0.50;0.50;;;16.60;99.90;;;;;;5084963;28;20231;-60
2022/06/07 03:45:01;;;;;;;0.60;0.60;;;16.50;99.90;;;;;;5083888;28;20306;-63
2022/06/07 03:47:28;;;;;;;0.50;0.50;;;16.60;99.90;;;;;;5083343;28;20217;-61
2022/06/07 03:49:55;;;;;;;0.60;0.60;;;16.50;99.90;;;;;;5081429;28;20248;-62
2022/06/07 03:52:22;;;;;;;0.70;0.70;;;16.60;99.90;;;;;;5085365;28;20198;-63
2022/06/07 03:54:50;;;;;;;0.80;0.80;;;16.60;99.90;;;;;;5085635;28;20318;-62
2022/06/07 03:57:17;;;;;;;0.53;0.53;;;16.60;99.90;;;;;;5087513;28;20285;-62
2022/06/07 03:59:44;;;;;;;0.50;0.50;;;16.60;99.90;;;;;;5085582;28;20579;-62
2022/06/07 04:02:14;;;;;;;0.60;0.60;;;16.70;99.90;;;;;;5086957;28;20613;-62
2022/06/07 04:04:41;;;;;;;0.63;0.63;;;16.70;99.90;;;;;;5086207;28;20210;-62
2022/06/07 04:09:55;;;;;;;0.70;0.70;;;16.70;99.90;;;;;;5088063;28;20268;-62
2022/06/07 04:12:21;;;;;;;0.70;0.70;;;16.70;99.90;;;;;;5083664;28;20256;-62
2022/06/07 04:14:48;;;;;;;0.63;0.63;;;16.60;99.90;;;;;;5082522;28;20391;-62
2022/06/07 04:17:15;;;;;;;0.80;0.80;;;16.60;99.90;;;;;;5083881;28;20227;-62
2022/06/07 04:19:43;;;;;;;0.50;0.50;;;16.60;99.90;;;;;;5089944;28;20242;-62
2022/06/07 04:22:11;;;;;;;0.60;0.60;;;16.50;99.90;;;;;;5083218;28;20199;-63
2022/06/07 04:24:38;;;;;;;0.60;0.60;;;16.40;99.90;;;;;;5089845;28;20226;-62
2022/06/07 04:27:06;;;;;;;0.60;0.60;;;16.30;99.90;;;;;;5083106;28;20199;-62
2022/06/07 04:29:33;;;;;;;0.70;0.70;;;16.30;99.90;;;;;;5091637;28;20209;-61
2022/06/07 04:32:00;;;;;;;0.60;0.60;;;16.10;99.90;;;;;;5083334;28;20210;-62
2022/06/07 04:34:27;;;;;;;1.10;0.70;;;16.10;99.90;;;;;;5083527;28;20697;-62
2022/06/07 04:36:54;;;;;;;0.90;0.90;;;16.10;99.90;;;;;;5092189;28;20199;-62
2022/06/07 04:39:21;;;;;;;0.60;0.60;;;16.20;99.90;;;;;;5095433;28;20222;-62
2022/06/07 04:41:48;;;;;;;0.70;0.70;;;16.30;99.90;;;;;;5099970;28;20234;-62
2022/06/07 04:44:16;;;;;;;0.60;0.60;;;16.30;99.90;;;;;;5082782;28;20223;-62
2022/06/07 04:46:43;;;;;;;0.77;0.70;;;16.30;99.90;;;;;;5084733;28;20808;-62
2022/06/07 04:49:10;;;;;;;0.50;0.50;;;16.40;99.90;;;;;;5088643;28;20295;-62
2022/06/07 04:51:38;;;;;;;0.60;0.60;;;16.40;99.90;;;;;;5083291;28;20669;-61
2022/06/07 04:54:06;;;;;;;0.60;0.60;;;16.40;99.90;;;;;;5088689;28;20693;-62
2022/06/07 04:56:35;;;;;;;0.40;0.40;;;16.40;99.90;;;;;;5083047;28;20223;-62
2022/06/07 04:59:03;;;;;;;0.90;0.63;;;16.50;99.90;;;;;;5089586;28;20224;-62
2022/06/07 05:01:34;;;;;;;0.53;0.53;;;16.50;99.90;;;;;;5080184;28;20218;-62
2022/06/07 05:04:01;;;;;;;0.70;0.70;;;16.60;99.90;;;;;;5073273;28;20692;-61
2022/06/07 05:06:30;;;;;;;0.73;0.73;;;16.60;99.90;;;;;;5075063;28;20229;-62
2022/06/07 05:09:00;;;;;;;0.60;0.60;;;16.60;99.90;;;;;;5079714;28;20207;-62
2022/06/07 05:11:27;;;;;;;0.70;0.70;;;16.60;99.90;;;;;;5085731;28;20301;-62
2022/06/07 05:13:55;;;;;;;0.50;0.50;;;16.70;99.90;;;;;;5081649;28;20317;-61
2022/06/07 05:16:21;;;;;;;0.60;0.60;;;16.90;99.90;;;;;;5080610;28;20226;-63
2022/06/07 05:18:50;;;;;;;0.80;0.80;;;17.00;99.90;;;;;;5078797;28;20211;-63
2022/06/07 05:21:18;;;;;;;0.60;0.60;;;17.00;99.90;;;;;;5081732;28;20205;-63
2022/06/07 05:23:45;;;;;;;0.60;0.60;;;17.10;99.90;;;;;;5077167;28;20314;-63
2022/06/07 05:26:17;;;;;;;0.60;0.60;;;17.10;99.90;;;;;;5081882;28;20275;-63
2022/06/07 05:28:45;;;;;;;0.90;0.90;;;17.20;99.90;;;;;;5086376;28;20207;-64
2022/06/07 05:31:12;;;;;;;0.70;0.70;;;17.20;99.90;;;;;;5085276;28;20286;-62
2022/06/07 05:33:39;;;;;;;0.67;0.67;;;17.10;99.90;;;;;;5075391;28;20294;-63
2022/06/07 05:36:09;;;;;;;0.53;0.53;;;17.10;99.90;;;;;;5085753;28;20225;-63
2022/06/07 05:38:36;;;;;;;0.70;0.70;;;17.10;99.90;;;;;;5082265;28;20203;-64
2022/06/07 05:41:03;;;;;;;0.67;0.67;;;17.20;99.90;;;;;;5076670;28;20229;-63
2022/06/07 05:43:30;;;;;;;0.70;0.70;;;17.20;99.90;;;;;;5076782;28;20226;-62
2022/06/07 05:45:58;;;;;;;0.50;0.50;;;17.30;99.90;;;;;;5075803;28;20748;-62
2022/06/07 05:48:25;;;;;;;0.70;0.70;;;17.40;99.90;;;;;;5084013;28;20205;-62
2022/06/07 05:50:52;;;;;;;0.70;0.70;;;17.40;99.90;;;;;;5081626;28;20203;-62
2022/06/07 05:53:21;;;;;;;0.87;0.87;;;17.40;99.90;;;;;;5087648;28;20228;-62
2022/06/07 05:55:48;;;;;;;0.50;0.50;;;17.40;99.90;;;;;;5082153;28;20228;-62
2022/06/07 05:58:15;;;;;;;0.53;0.53;;;17.40;99.90;;;;;;5080907;28;20282;-62
2022/06/07 06:00:42;;;;;;;0.90;0.90;;;17.40;99.90;;;;;;5085871;28;20630;-61
2022/06/07 06:03:10;;;;;;;0.60;0.60;;;17.40;99.90;;;;;;5076732;28;20230;-61
2022/06/07 06:05:38;;;;;;;0.70;0.70;;;17.40;99.90;;;;;;5071129;28;20276;-62
2022/06/07 06:11:03;;;;;;;0.70;0.70;;;17.50;99.90;;;;;;5079805;28;20213;-61
2022/06/07 06:13:30;;;;;;;0.70;0.70;;;17.50;99.90;;;;;;5075513;28;20223;-62
2022/06/07 06:16:02;;;;;;;0.90;0.90;;;17.50;99.90;;;;;;5072271;28;20226;-62
2022/06/07 06:18:29;;;;;;;0.60;0.60;;;17.50;99.90;;;;;;5075643;28;20294;-62
2022/06/07 06:20:56;;;;;;;0.70;0.70;;;17.60;99.90;;;;;;5075286;28;20205;-62
2022/06/07 06:23:23;;;;;;;0.63;0.63;;;17.80;99.90;;;;;;5081826;28;20222;-63
2022/06/07 06:25:52;;;;;;;0.53;0.53;;;17.90;99.90;;;;;;5082438;28;20227;-63
2022/06/07 06:28:19;;;;;;;0.93;0.93;;;18.00;99.90;;;;;;5079317;28;20245;-62
2022/06/07 06:30:47;;;;;;;0.67;0.67;;;18.40;99.90;;;;;;5084316;28;20256;-63
2022/06/07 06:33:15;;;;;;;0.77;0.60;;;18.60;99.90;;;;;;5077749;28;20226;-63
2022/06/07 06:35:48;;;;;;;0.67;0.60;;;18.80;99.90;;;;;;5077870;28;20223;-62
2022/06/07 06:38:15;;;;;;;0.67;0.67;;;19.00;99.90;;;;;;5069476;28;20212;-64
2022/06/07 06:40:43;;;;;;;0.73;0.73;;;19.20;99.90;;;;;;5075319;28;20230;-62
2022/06/07 06:43:12;;;;;;;0.70;0.70;;;19.30;99.90;;;;;;5073511;28;20220;-62
2022/06/07 06:45:40;;;;;;;1.03;0.63;;;19.60;99.90;;;;;;5073735;28;20199;-62
2022/06/07 06:48:08;;;;;;;0.60;0.60;;;19.90;99.90;;;;;;5075748;28;20199;-62
2022/06/07 06:50:35;;;;;;;0.80;0.80;;;20.10;99.90;;;;;;5082992;28;20209;-61
2022/06/07 06:53:02;;;;;;;0.70;0.70;;;20.30;99.90;;;;;;5075925;28;20327;-62
2022/06/07 06:55:30;;;;;;;0.97;0.80;;;20.30;99.90;;;;;;5083063;28;20720;-64
2022/06/07 06:57:57;;;;;;;0.77;0.77;;;20.30;99.90;;;;;;5074643;28;20252;-63
2022/06/07 07:00:25;;;;;;;0.70;0.70;;;20.40;99.90;;;;;;5083134;28;20198;-63
2022/06/07 07:02:53;;;;;;;0.77;0.77;;;20.40;99.90;;;;;;5080888;28;20207;-63
2022/06/07 07:05:21;;;;;;;0.70;0.70;;;20.40;99.90;;;;;;5084465;28;20661;-62
2022/06/07 07:07:48;;;;;;;0.70;0.70;;;20.40;99.90;;;;;;5077808;28;20202;-61
2022/06/07 07:10:14;;;;;;;0.53;0.53;;;20.40;99.90;;;;;;5072250;28;20629;-62
2022/06/07 07:12:41;;;;;;;0.60;0.60;;;20.40;99.90;;;;;;5082224;28;20205;-61
2022/06/07 07:15:13;;;;;;;0.50;0.50;;;20.40;99.90;;;;;;5071540;28;20297;-63
2022/06/07 07:17:41;;;;;;;0.67;0.67;;;20.30;99.90;;;;;;5083984;28;20198;-62
2022/06/07 07:20:09;;;;;;;0.60;0.60;;;20.30;99.90;;;;;;5080497;28;20248;-61
2022/06/07 07:22:37;;;;;;;0.50;0.50;;;20.30;99.90;;;;;;5085640;28;20207;-63
2022/06/07 07:25:05;;;;;;;0.50;0.50;;;20.40;99.90;;;;;;5079718;28;20731;-62
2022/06/07 07:27:32;;;;;;;0.70;0.70;;;20.50;99.90;;;;;;5080735;28;20686;-62
2022/06/07 07:30:00;;;;;;;1.17;0.70;;;20.60;99.90;;;;;;5076020;28;20268;-60
2022/06/07 07:32:27;;;;;;;0.50;0.50;;;20.60;99.90;;;;;;5081830;28;20210;-62
2022/06/07 07:34:55;;;;;;;0.53;0.53;;;20.60;99.90;;;;;;5079947;28;20318;-62
2022/06/07 07:37:22;;;;;;;0.60;0.60;;;20.60;99.90;;;;;;5075608;28;20237;-62
2022/06/07 07:39:49;;;;;;;0.47;0.47;;;20.60;99.90;;;;;;5080915;28;20294;-62
2022/06/07 07:42:16;;;;;;;0.50;0.50;;;20.60;99.90;;;;;;5078272;28;20203;-61
2022/06/07 07:44:43;;;;;;;0.60;0.60;;;20.70;99.90;;;;;;5082640;28;20230;-62
2022/06/07 07:47:10;;;;;;;0.67;0.67;;;20.80;99.90;;;;;;5078585;28;20286;-61
2022/06/07 07:49:38;;;;;;;0.57;0.57;;;20.90;99.90;;;;;;5080171;28;20617;-61
2022/06/07 07:52:06;;;;;;;0.50;0.50;;;21.00;99.90;;;;;;5083375;28;20201;-61
2022/06/07 07:54:33;;;;;;;0.40;0.40;;;21.20;99.90;;;;;;5081825;28;20302;-63
2022/06/07 07:57:00;;;;;;;0.40;0.40;;;21.40;99.90;;;;;;5063763;28;20850;-61
2022/06/07 07:59:28;;;;;;;0.40;0.40;;;21.50;99.90;;;;;;5073636;28;20237;-62
2022/06/07 08:01:55;;;;;;;0.50;0.50;;;21.40;99.90;;;;;;5072701;28;20233;-61
2022/06/07 08:04:22;;;;;;;0.60;0.60;;;21.50;99.90;;;;;;5082316;28;20257;-61
2022/06/07 08:06:49;;;;;;;0.60;0.60;;;21.40;99.90;;;;;;5080615;28;20234;-63
2022/06/07 08:09:17;;;;;;;0.50;0.50;;;21.50;99.90;;;;;;5082951;28;20234;-62
2022/06/07 08:11:44;;;;;;;0.60;0.60;;;21.50;99.90;;;;;;5076149;28;20210;-61
2022/06/07 08:14:14;;;;;;;0.50;0.50;;;21.40;99.90;;;;;;5082232;28;20634;-61
2022/06/07 08:16:41;;;;;;;0.57;0.57;;;21.20;99.90;;;;;;5078624;28;20246;-62
2022/06/07 08:19:09;;;;;;;0.50;0.50;;;21.20;99.90;;;;;;5078084;28;20293;-64
2022/06/07 08:21:38;;;;;;;0.60;0.60;;;21.20;99.90;;;;;;5073862;28;20680;-63
2022/06/07 08:24:05;;;;;;;0.60;0.60;;;21.30;99.90;;;;;;5082349;28;20331;-62
2022/06/07 08:26:34;;;;;;;0.50;0.50;;;21.40;99.90;;;;;;5081389;28;20199;-61
2022/06/07 08:29:02;;;;;;;0.57;0.57;;;21.70;99.90;;;;;;5068576;28;20294;-62
2022/06/07 08:31:31;;;;;;;0.40;0.40;;;21.90;99.90;;;;;;5083166;28;20205;-62
2022/06/07 08:39:28;;;;;;;0.33;0.33;;;21.90;99.90;;;;;;5085945;28;20206;-63
2022/06/07 08:41:59;;;;;;;0.38;0.38;;;22.10;99.90;;;;;;5083301;28;20737;-62
2022/06/07 08:44:30;;;;;;;0.30;0.30;;;22.30;99.90;;;;;;5081622;28;20223;-62
2022/06/07 08:47:02;;;;;;;0.50;0.50;;;22.40;99.90;;;;;;5078692;28;20595;-62
2022/06/07 08:49:30;;;;;;;0.45;0.45;;;22.50;99.90;;;;;;5083793;28;20737;-62
2022/06/07 08:52:03;;;;;;;0.60;0.60;;;22.50;99.90;;;;;;5087038;28;20293;-62
2022/06/07 08:54:35;;;;;;;0.70;0.70;;;22.70;99.90;;;;;;5084626;28;20223;-62
2022/06/07 08:57:15;;;;;;;0.35;0.35;;;22.90;99.90;;;;;;5069511;28;20316;-62
2022/06/07 08:59:46;;;;;;;0.60;0.60;;;23.30;99.90;;;;;;5075020;28;20196;-64
2022/06/07 09:02:27;;;;;;;0.40;0.40;;;23.30;99.90;;;;;;5086361;28;20290;-63
2022/06/07 09:04:56;;;;;;;0.60;0.60;;;23.60;99.90;;;;;;5076991;28;20664;-63
2022/06/07 09:07:23;;;;;;;0.32;0.32;;;23.60;99.90;;;;;;5079208;28;20680;-62
2022/06/07 09:12:39;;;;;;;0.40;0.40;;;23.50;99.90;;;;;;5086632;28;20221;-62
2022/06/07 09:15:11;;;;;;;0.67;0.67;;;23.30;99.90;;;;;;5069205;28;20223;-62
2022/06/07 09:17:40;;;;;;;0.30;0.30;;;23.20;99.90;;;;;;5077324;28;20233;-63
2022/06/07 09:20:15;;;;;;;0.47;0.47;;;23.20;99.90;;;;;;5075846;28;20294;-64
2022/06/07 09:22:51;;;;;;;0.50;0.50;;;23.10;99.90;;;;;;5087339;28;20569;-62
2022/06/07 09:25:24;;;;;;;0.98;0.50;;;23.30;99.90;;;;;;5083108;28;20219;-63
2022/06/07 09:27:53;;;;;;;0.40;0.40;;;23.50;99.90;;;;;;5090455;28;20706;-63
2022/06/07 09:30:25;;;;;;;0.57;0.57;;;23.60;99.90;;;;;;5083266;28;20250;-63
2022/06/07 09:32:53;;;;;;;0.47;0.47;;;23.70;99.90;;;;;;5076365;28;20195;-63
2022/06/07 09:35:22;;;;;;;0.50;0.50;;;23.60;99.90;;;;;;5098553;22;20310;-64
2022/06/07 09:37:54;;;;;;;0.40;0.40;;;23.50;99.90;;;;;;5085297;28;20235;-64
2022/06/07 09:40:30;;;;;;;0.60;0.60;;;23.50;99.90;;;;;;5076944;28;20290;-67
2022/06/07 09:43:09;;;;;;;0.47;0.47;;;23.50;99.90;;;;;;5092267;28;20279;-67
2022/06/07 09:45:39;;;;;;;0.52;0.47;;;23.50;99.90;;;;;;5090879;28;20222;-66
2022/06/07 09:48:37;;;;;;;0.37;0.37;;;23.50;99.90;;;;;;5082332;28;20287;-64
2022/06/07 09:51:14;;;;;;;0.40;0.40;;;23.40;99.90;;;;;;4988643;28;20291;-65
2022/06/07 09:53:44;;;;;;;0.60;0.60;;;23.30;99.90;;;;;;5066428;28;20202;-65
2022/06/07 09:56:26;;;;;;;0.60;0.60;;;23.30;99.90;;;;;;5078235;28;20224;-67
2022/06/07 09:59:23;;;;;;;0.60;0.60;;;23.30;99.90;;;;;;5088919;28;20732;-64
2022/06/07 10:01:55;;;;;;;0.40;0.40;;;23.30;99.90;;;;;;5082082;28;20302;-65
2022/06/07 10:04:32;;;;;;;0.40;0.40;;;23.30;99.90;;;;;;5078176;28;20219;-65
2022/06/07 10:07:01;;;;;;;0.50;0.50;;;23.20;99.90;;;;;;5074549;28;20298;-64
2022/06/07 10:09:52;;;;;;;0.60;0.60;;;22.90;99.90;;;;;;5083393;28;20202;-66
2022/06/07 10:12:28;;;;;;;0.55;0.55;;;22.80;99.90;;;;;;5077840;28;20279;-67
2022/06/07 10:15:02;;;;;;;0.60;0.60;;;22.80;99.90;;;;;;5082837;28;21456;-66
2022/06/07 10:17:52;;;;;;;0.60;0.60;;;22.80;99.90;;;;;;5085672;28;20213;-66
2022/06/07 10:20:28;;;;;;;0.57;0.57;;;22.90;99.90;;;;;;5079775;28;20196;-65
2022/06/07 10:23:18;;;;;;;0.52;0.52;;;23.00;99.90;;;;;;5081088;28;20321;-66
2022/06/07 10:25:59;;;;;;;0.55;0.55;;;23.20;99.90;;;;;;5076880;28;20227;-66
2022/06/07 10:28:34;;;;;;;0.40;0.40;;;23.50;99.90;;;;;;5085050;28;20290;-65
2022/06/07 10:31:07;;;;;;;0.47;0.47;;;23.70;99.90;;;;;;5070832;28;20201;-66
2022/06/07 10:33:47;;;;;;;0.30;0.30;;;23.70;99.90;;;;;;5079790;28;20286;-67
2022/06/07 10:36:27;;;;;;;0.50;0.50;;;23.60;99.90;;;;;;5075389;28;20195;-66
2022/06/07 10:39:08;;;;;;;0.40;0.40;;;23.70;99.90;;;;;;5079555;28;20206;-66
2022/06/07 10:41:44;;;;;;;0.55;0.55;;;23.90;99.90;;;;;;5085097;28;20604;-66
2022/06/07 10:44:20;;;;;;;0.70;0.40;;;24.20;99.90;;;;;;5080282;28;20223;-65
2022/06/07 10:46:49;;;;;;;0.40;0.40;;;24.30;99.90;;;;;;5088555;28;20285;-66
2022/06/07 10:49:23;;;;;;;0.40;0.40;;;24.40;99.90;;;;;;5082564;28;20699;-66
2022/06/07 10:54:47;;;;;;;0.30;0.30;;;24.50;99.90;;;;;;5078086;28;20590;-66
2022/06/07 10:57:19;;;;;;;0.40;0.40;;;24.90;99.90;;;;;;5090220;28;20250;-66
2022/06/07 10:59:46;;;;;;;0.63;0.63;;;24.90;99.90;;;;;;5084116;28;20291;-65
2022/06/07 11:02:24;;;;;;;0.47;0.47;;;24.80;99.90;;;;;;5084922;28;20660;-67
2022/06/07 11:10:37;;;;;;;0.25;0.25;;;24.60;99.90;;;;;;5084879;28;20248;-67
2022/06/07 11:13:16;;;;;;;0.20;0.20;;;24.80;99.90;;;;;;5077881;28;20289;-66
2022/06/07 11:15:50;;;;;;;0.40;0.40;;;24.80;99.90;;;;;;5083684;28;20588;-65
2022/06/07 11:18:22;;;;;;;0.38;0.38;;;25.00;99.90;;;;;;5081016;28;20261;-65
2022/06/07 11:20:51;;;;;;;0.50;0.50;;;25.20;99.90;;;;;;5078248;28;20285;-67
2022/06/07 11:23:24;;;;;;;1.15;0.50;;;25.50;99.90;;;;;;5081851;28;20227;-67
2022/06/07 11:26:02;;;;;;;0.40;0.40;;;25.40;99.90;;;;;;5088621;28;20210;-65
2022/06/07 11:28:33;;;;;;;0.40;0.40;;;25.40;99.90;;;;;;5081171;28;20226;-67
2022/06/07 11:31:02;;;;;;;0.52;0.52;;;25.60;99.90;;;;;;5080153;28;20200;-65
2022/06/07 11:33:58;;;;;;;0.40;0.40;;;25.50;99.90;;;;;;5079738;28;20203;-67
2022/06/07 11:36:36;;;;;;;0.40;0.40;;;25.70;99.90;;;;;;5073688;28;20226;-66
2022/06/07 11:39:25;;;;;;;0.63;0.40;;;25.80;99.90;;;;;;5071086;28;20582;-64
2022/06/07 11:41:54;;;;;;;0.38;0.38;;;26.10;99.90;;;;;;5079594;28;20215;-67
2022/06/07 11:44:34;;;;;;;0.45;0.45;;;26.10;99.90;;;;;;5079112;28;20220;-65
2022/06/07 11:47:20;;;;;;;0.20;0.20;;;26.10;99.90;;;;;;5073919;28;20687;-65
2022/06/07 11:50:00;;;;;;;0.43;0.43;;;26.30;99.90;;;;;;5081994;28;20699;-68
2022/06/07 11:52:29;;;;;;;0.50;0.50;;;26.40;99.90;;;;;;5083636;28;20211;-66
2022/06/07 11:54:59;;;;;;;0.40;0.40;;;26.40;99.90;;;;;;5073385;28;20219;-67
2022/06/07 11:57:35;;;;;;;0.43;0.43;;;26.30;99.90;;;;;;5079874;28;20253;-66
2022/06/07 12:00:23;;;;;;;0.32;0.32;;;26.30;99.90;;;;;;5070968;28;20206;-66
2022/06/07 12:03:13;;;;;;;0.40;0.40;;;26.50;99.90;;;;;;5081581;28;20290;-65
2022/06/07 12:05:45;;;;;;;0.50;0.50;;;26.30;99.90;;;;;;5081798;28;20238;-65
2022/06/07 12:08:19;;;;;;;0.40;0.40;;;26.20;99.90;;;;;;5083858;28;20222;-66
2022/06/07 12:11:00;;;;;;;0.50;0.50;;;26.10;99.90;;;;;;5081863;28;20289;-65
2022/06/07 12:16:25;;;;;;;0.40;0.40;;;26.00;99.90;;;;;;5077766;28;20199;-68
2022/06/07 12:18:53;;;;;;;0.45;0.45;;;26.00;99.90;;;;;;5086350;28;20195;-66
2022/06/07 12:21:21;;;;;;;0.40;0.40;;;26.00;99.90;;;;;;5082380;28;20203;-66
2022/06/07 12:23:50;;;;;;;0.40;0.40;;;26.10;99.90;;;;;;5082397;28;20235;-67
2022/06/07 12:26:20;;;;;;;0.50;0.50;;;26.00;99.90;;;;;;5083111;28;20234;-66
2022/06/07 12:28:52;;;;;;;0.40;0.40;;;25.80;99.90;;;;;;5078899;28;20203;-65
2022/06/07 12:31:25;;;;;;;0.60;0.60;;;25.70;99.90;;;;;;5090523;28;20233;-65
2022/06/07 12:33:54;;;;;;;0.40;0.40;;;25.50;99.90;;;;;;5087858;28;20227;-65
2022/06/07 12:36:25;;;;;;;1.13;0.70;;;25.50;99.90;;;;;;5091391;28;20593;-63
2022/06/07 12:38:53;;;;;;;0.60;0.60;;;25.40;99.90;;;;;;5095850;28;20225;-66
2022/06/07 12:41:23;;;;;;;0.57;0.57;;;25.40;99.90;;;;;;5095688;28;20199;-67
2022/06/07 12:43:52;;;;;;;0.50;0.50;;;25.50;99.90;;;;;;5085277;28;20309;-66
2022/06/07 12:46:21;;;;;;;0.32;0.32;;;25.50;99.90;;;;;;5087341;28;20653;-65
2022/06/07 12:48:49;;;;;;;0.38;0.38;;;25.60;99.90;;;;;;5084330;28;20228;-67
2022/06/07 12:51:34;;;;;;;0.52;0.52;;;25.50;99.90;;;;;;5088170;28;20247;-67
2022/06/07 12:54:04;;;;;;;0.40;0.40;;;25.50;99.90;;;;;;5078024;28;20405;-65
2022/06/07 12:56:35;;;;;;;0.63;0.40;;;25.40;99.90;;;;;;5090197;28;20198;-66
2022/06/07 12:59:06;;;;;;;0.40;0.40;;;25.30;99.90;;;;;;5077666;28;20649;-67
2022/06/07 13:01:36;;;;;;;0.40;0.40;;;25.30;99.90;;;;;;5074298;28;20211;-65
2022/06/07 13:04:15;;;;;;;0.28;0.28;;;25.30;99.90;;;;;;5075358;28;20653;-66
2022/06/07 13:06:58;;;;;;;0.20;0.20;;;25.20;99.90;;;;;;5084026;28;20203;-66
2022/06/07 13:09:25;;;;;;;0.52;0.40;;;25.10;99.90;;;;;;5083043;28;20290;-67
2022/06/07 13:11:53;;;;;;;0.50;0.50;;;25.10;99.90;;;;;;5085973;28;20290;-66
2022/06/07 13:14:20;;;;;;;0.30;0.30;;;25.00;99.90;;;;;;5088417;28;20717;-65
2022/06/07 13:16:48;;;;;;;0.38;0.38;;;25.00;99.90;;;;;;5082764;28;20616;-65
2022/06/07 13:19:41;;;;;;;0.50;0.50;;;25.20;99.90;;;;;;5080436;28;20286;-66
2022/06/07 13:22:15;;;;;;;0.20;0.20;;;25.30;99.90;;;;;;5072641;28;20237;-66
2022/06/07 13:24:46;;;;;;;0.60;0.60;;;25.50;99.90;;;;;;5085225;28;20223;-65
2022/06/07 13:27:43;;;;;;;0.40;0.40;;;26.00;99.90;;;;;;5081097;28;20283;-66
2022/06/07 13:30:17;;;;;;;0.40;0.40;;;26.00;99.90;;;;;;5088222;28;20675;-65
2022/06/07 13:32:45;;;;;;;0.40;0.40;;;26.00;99.90;;;;;;5076944;28;20202;-68
2022/06/07 13:35:20;;;;;;;0.40;0.40;;;25.90;99.90;;;;;;5074526;28;20227;-66
2022/06/07 13:38:05;;;;;;;0.50;0.50;;;25.80;99.90;;;;;;5088310;28;20309;-66
2022/06/07 13:40:34;;;;;;;0.40;0.40;;;25.60;99.90;;;;;;5078049;28;20199;-67